createdAt,value
2018-04-28T00:03:36.026Z,13.01
2018-04-28T00:06:05.105Z,12.95
2018-04-28T00:08:37.083Z,12.86
2018-04-28T00:11:06.242Z,12.79
2018-04-28T00:13:35.306Z,12.81
2018-04-28T00:16:17.619Z,12.80
2018-04-28T00:24:31.990Z,12.97
2018-04-28T00:27:19.385Z,12.92
2018-04-28T00:29:51.190Z,12.88
2018-04-28T00:32:20.249Z,12.85
2018-04-28T00:35:05.078Z,12.84
2018-04-28T00:37:50.503Z,12.77
2018-04-28T00:40:39.074Z,12.78
2018-04-28T00:43:08.126Z,12.69
2018-04-28T00:45:40.439Z,12.63
2018-04-28T00:51:30.800Z,12.27
2018-04-28T00:54:24.387Z,12.12
2018-04-28T01:03:09.834Z,12.29
2018-04-28T01:05:48.638Z,12.36
2018-04-28T01:08:33.285Z,12.31
2018-04-28T01:11:07.791Z,12.22
2018-04-28T01:16:15.270Z,12.03
2018-04-28T01:19:00.034Z,11.84
2018-04-28T01:21:34.696Z,11.67
2018-04-28T01:27:27.165Z,11.70
2018-04-28T01:30:03.827Z,11.66
2018-04-28T01:39:09.354Z,11.72
2018-04-28T01:41:53.979Z,11.34
2018-04-28T01:47:25.269Z,10.98
2018-04-28T01:50:00.894Z,10.76
2018-04-28T01:55:27.441Z,10.75
2018-04-28T01:58:17.835Z,10.77
2018-04-28T02:00:58.628Z,10.68
2018-04-28T02:03:48.882Z,10.73
2018-04-28T02:06:28.257Z,10.62
2018-04-28T02:15:10.154Z,10.58
2018-04-28T02:17:47.909Z,10.36
2018-04-28T02:23:12.174Z,10.22
2018-04-28T02:25:45.632Z,10.12
2018-04-28T02:34:30.223Z,10.18
2018-04-28T02:40:12.194Z,10.05
2018-04-28T02:42:52.562Z,9.84
2018-04-28T02:51:25.655Z,9.80
2018-04-28T03:00:18.751Z,9.81
2018-04-28T03:02:52.504Z,9.64
2018-04-28T03:05:44.846Z,9.55
2018-04-28T03:11:17.729Z,9.52
2018-04-28T03:13:51.736Z,9.33
2018-04-28T03:16:30.244Z,9.18
2018-04-28T03:19:03.056Z,9.14
2018-04-28T03:21:33.449Z,9.17
2018-04-28T03:24:19.593Z,9.17
2018-04-28T03:26:59.051Z,9.16
2018-04-28T03:32:06.910Z,9.34
2018-04-28T03:34:43.224Z,9.49
2018-04-28T03:37:17.782Z,9.34
2018-04-28T03:42:28.170Z,9.23
2018-04-28T03:45:03.817Z,9.01
2018-04-28T03:47:38.269Z,8.83
2018-04-28T03:50:19.734Z,8.72
2018-04-28T03:52:52.925Z,8.65
2018-04-28T03:55:22.805Z,8.67
2018-04-28T03:58:09.736Z,8.72
2018-04-28T04:00:56.722Z,8.75
2018-04-28T04:03:26.025Z,8.74
2018-04-28T04:06:23.791Z,8.88
2018-04-28T04:08:54.284Z,8.90
2018-04-28T04:14:55.025Z,9.03
2018-04-28T04:32:19.842Z,9.18
2018-04-28T04:46:10.939Z,9.33
2018-04-28T04:48:47.604Z,9.27
2018-04-28T04:51:28.366Z,9.24
2018-04-28T04:56:44.632Z,9.29
2018-04-28T04:59:29.010Z,9.21
2018-04-28T05:02:13.399Z,9.26
2018-04-28T05:13:44.443Z,10.43
2018-04-28T05:16:37.748Z,10.49
2018-04-28T05:28:38.025Z,11.79
2018-04-28T05:34:50.245Z,12.29
2018-04-28T05:37:30.296Z,12.38
2018-04-28T05:40:12.315Z,12.53
2018-04-28T05:43:17.515Z,12.65
2018-04-28T05:46:02.111Z,12.73
2018-04-28T05:48:49.393Z,12.79
2018-04-28T05:54:38.354Z,12.95
2018-04-28T05:57:25.177Z,12.96
2018-04-28T06:00:23.702Z,12.96
2018-04-28T06:03:21.663Z,13.03
2018-04-28T06:08:53.984Z,13.39
2018-04-28T06:17:21.198Z,13.81
2018-04-28T06:22:26.001Z,13.97
2018-04-28T06:24:55.042Z,14.15
2018-04-28T06:27:24.155Z,14.28
2018-04-28T06:29:53.219Z,14.40
2018-04-28T06:32:22.257Z,14.37
2018-04-28T06:34:52.577Z,14.43
2018-04-28T06:37:24.818Z,14.49
2018-04-28T06:39:57.858Z,14.75
2018-04-28T06:42:30.736Z,14.76
2018-04-28T06:45:01.359Z,14.87
2018-04-28T06:47:33.649Z,15.10
2018-04-28T06:50:05.929Z,15.36
2018-04-28T06:52:37.274Z,15.45
2018-04-28T06:55:10.016Z,15.48
2018-04-28T06:57:43.589Z,15.60
2018-04-28T07:00:15.279Z,15.71
2018-04-28T07:02:48.293Z,15.81
2018-04-28T07:05:20.939Z,15.88
2018-04-28T07:07:54.372Z,16.13
2018-04-28T07:13:04.622Z,16.36
2018-04-28T07:18:14.012Z,16.65
2018-04-28T07:20:45.895Z,16.78
2018-04-28T07:23:17.439Z,16.82
2018-04-28T07:28:27.135Z,16.97
2018-04-28T07:30:58.590Z,17.01
2018-04-28T07:33:31.195Z,17.05
2018-04-28T07:36:03.900Z,17.14
2018-04-28T07:38:36.030Z,17.25
2018-04-28T07:41:07.937Z,17.37
2018-04-28T07:43:40.922Z,17.45
2018-04-28T07:46:12.643Z,17.66
2018-04-28T07:48:45.389Z,17.92
2018-04-28T07:51:16.670Z,17.83
2018-04-28T07:53:48.696Z,17.94
2018-04-28T07:56:20.595Z,18.03
2018-04-28T07:58:52.186Z,18.03
2018-04-28T08:01:23.116Z,18.19
2018-04-28T08:03:56.725Z,18.48
2018-04-28T08:06:30.897Z,18.60
2018-04-28T08:09:03.935Z,18.78
2018-04-28T08:14:15.733Z,19.05
2018-04-28T08:19:25.835Z,19.38
2018-04-28T08:21:59.121Z,19.38
2018-04-28T08:24:32.300Z,19.61
2018-04-28T08:27:06.557Z,19.71
2018-04-28T08:29:40.523Z,19.86
2018-04-28T08:32:14.339Z,19.97
2018-04-28T08:37:23.153Z,20.35
2018-04-28T08:39:55.242Z,20.43
2018-04-28T08:42:27.005Z,20.64
2018-04-28T08:44:59.396Z,20.18
2018-04-28T08:47:30.312Z,20.44
2018-04-28T08:50:02.260Z,20.67
2018-04-28T08:52:34.343Z,20.94
2018-04-28T08:55:06.098Z,21.25
2018-04-28T09:02:49.937Z,22.43
2018-04-28T09:05:20.448Z,23.48
2018-04-28T09:10:28.660Z,24.37
2018-04-28T09:13:01.478Z,25.41
2018-04-28T09:15:33.238Z,27.63
2018-04-28T09:18:04.750Z,28.68
2018-04-28T09:20:37.251Z,30.17
2018-04-28T09:23:09.710Z,28.15
2018-04-28T09:25:41.345Z,30.40
2018-04-28T09:28:12.627Z,31.76
2018-04-28T09:30:44.245Z,33.16
2018-04-28T09:33:15.232Z,31.18
2018-04-28T09:38:23.950Z,32.41
2018-04-28T09:40:54.904Z,34.27
2018-04-28T09:46:04.542Z,36.02
2018-04-28T09:48:37.236Z,35.34
2018-04-28T09:51:08.896Z,35.27
2018-04-28T09:53:40.500Z,34.25
2018-04-28T09:56:12.715Z,33.36
2018-04-28T09:58:45.298Z,34.06
2018-04-28T10:01:22.092Z,35.39
2018-04-28T10:06:33.151Z,36.77
2018-04-28T10:09:05.092Z,37.91
2018-04-28T10:11:36.656Z,36.23
2018-04-28T10:14:05.754Z,34.39
2018-04-28T10:19:12.702Z,32.12
2018-04-28T10:21:41.751Z,31.71
2018-04-28T10:24:17.105Z,35.22
2018-04-28T10:29:28.197Z,36.95
2018-04-28T10:32:01.660Z,37.74
2018-04-28T10:34:35.079Z,37.77
2018-04-28T10:37:08.372Z,35.78
2018-04-28T10:39:42.110Z,37.00
2018-04-28T10:42:15.788Z,38.63
2018-04-28T10:47:25.083Z,39.79
2018-04-28T10:49:58.623Z,38.70
2018-04-28T10:52:31.531Z,39.01
2018-04-28T10:55:04.466Z,40.85
2018-04-28T10:57:35.600Z,35.78
2018-04-28T11:00:08.523Z,38.24
2018-04-28T11:02:40.890Z,39.47
2018-04-28T11:05:13.099Z,39.83
2018-04-28T11:10:21.853Z,40.24
2018-04-28T11:12:55.739Z,37.80
2018-04-28T11:15:28.865Z,38.40
2018-04-28T11:18:00.245Z,39.48
2018-04-28T11:20:32.059Z,39.60
2018-04-28T11:23:03.176Z,38.38
2018-04-28T11:25:34.059Z,36.51
2018-04-28T11:28:05.918Z,37.73
2018-04-28T11:30:37.978Z,40.86
2018-04-28T11:33:10.858Z,41.71
2018-04-28T11:35:42.724Z,42.11
2018-04-28T11:38:14.811Z,39.93
2018-04-28T11:40:46.876Z,41.62
2018-04-28T11:43:18.130Z,42.64
2018-04-28T11:45:50.093Z,42.65
2018-04-28T11:48:22.531Z,42.67
2018-04-28T11:50:54.334Z,37.97
2018-04-28T11:53:25.057Z,40.17
2018-04-28T11:55:56.377Z,40.83
2018-04-28T11:58:28.051Z,42.02
2018-04-28T12:00:59.362Z,42.75
2018-04-28T12:03:30.838Z,43.09
2018-04-28T12:06:03.570Z,43.37
2018-04-28T12:08:35.016Z,42.46
2018-04-28T12:11:07.472Z,43.19
2018-04-28T12:16:15.910Z,42.62
2018-04-28T12:18:48.562Z,37.47
2018-04-28T12:21:19.391Z,40.45
2018-04-28T12:23:51.407Z,38.52
2018-04-28T12:26:23.628Z,41.79
2018-04-28T12:28:55.174Z,42.72
2018-04-28T12:31:26.740Z,43.00
2018-04-28T12:33:58.919Z,42.25
2018-04-28T12:36:30.332Z,43.05
2018-04-28T12:39:00.994Z,42.64
2018-04-28T12:41:33.091Z,42.34
2018-04-28T12:46:38.119Z,44.00
2018-04-28T12:49:11.578Z,40.10
2018-04-28T12:51:43.112Z,42.63
2018-04-28T12:54:14.699Z,40.27
2018-04-28T12:56:47.517Z,42.24
2018-04-28T12:59:18.398Z,42.10
2018-04-28T13:01:48.948Z,40.58
2018-04-28T13:04:20.028Z,42.97
2018-04-28T13:06:52.064Z,43.11
2018-04-28T13:09:23.221Z,41.52
2018-04-28T13:14:31.228Z,42.50
2018-04-28T13:17:03.005Z,41.37
2018-04-28T13:19:34.860Z,42.67
2018-04-28T13:22:06.485Z,40.99
2018-04-28T13:24:38.346Z,44.07
2018-04-28T13:27:10.834Z,42.70
2018-04-28T13:29:43.249Z,43.06
2018-04-28T13:32:15.668Z,43.81
2018-04-28T13:34:48.470Z,45.05
2018-04-28T13:39:56.432Z,41.32
2018-04-28T13:42:27.912Z,39.08
2018-04-28T13:45:00.609Z,41.71
2018-04-28T13:47:30.297Z,42.11
2018-04-28T13:50:01.611Z,39.21
2018-04-28T13:52:32.770Z,41.85
2018-04-28T13:55:04.936Z,43.27
2018-04-28T13:57:36.273Z,43.08
2018-04-28T14:00:07.557Z,43.11
2018-04-28T14:02:39.247Z,43.27
2018-04-28T14:07:49.015Z,45.29
2018-04-28T14:10:20.512Z,44.56
2018-04-28T14:12:52.100Z,44.43
2018-04-28T14:15:22.927Z,43.04
2018-04-28T14:17:52.048Z,39.41
2018-04-28T14:20:23.340Z,36.97
2018-04-28T14:22:52.430Z,38.30
2018-04-28T14:25:24.815Z,39.46
2018-04-28T14:27:57.479Z,39.74
2018-04-28T14:30:29.011Z,39.10
2018-04-28T14:33:00.546Z,35.19
2018-04-28T14:35:32.317Z,35.10
2018-04-28T14:38:04.187Z,35.73
2018-04-28T14:40:36.570Z,36.62
2018-04-28T14:43:09.207Z,33.83
2018-04-28T14:45:39.298Z,33.21
2018-04-28T14:50:49.210Z,32.85
2018-04-28T14:53:20.594Z,35.53
2018-04-28T14:55:52.503Z,37.32
2018-04-28T14:58:25.269Z,37.71
2018-04-28T15:00:58.017Z,38.62
2018-04-28T15:03:29.996Z,38.18
2018-04-28T15:06:02.859Z,38.86
2018-04-28T15:08:35.325Z,39.11
2018-04-28T15:11:08.137Z,39.37
2018-04-28T15:13:40.293Z,38.22
2018-04-28T15:16:09.340Z,38.30
2018-04-28T15:18:42.010Z,39.37
2018-04-28T15:21:14.077Z,40.59
2018-04-28T15:23:46.922Z,41.33
2018-04-28T15:26:18.900Z,41.63
2018-04-28T15:28:51.719Z,41.76
2018-04-28T15:31:23.218Z,39.62
2018-04-28T15:33:55.926Z,40.15
2018-04-28T15:36:28.448Z,39.63
2018-04-28T15:41:33.434Z,42.36
2018-04-28T15:44:03.225Z,41.28
2018-04-28T15:49:08.118Z,41.09
2018-04-28T15:54:13.272Z,41.87
2018-04-28T15:56:42.325Z,39.79
2018-04-28T15:59:11.827Z,38.71
2018-04-28T16:01:40.883Z,38.78
2018-04-28T16:04:10.187Z,38.77
2018-04-28T16:06:39.244Z,39.07
2018-04-28T16:09:09.150Z,37.50
2018-04-28T16:11:38.209Z,36.07
2018-04-28T16:16:44.265Z,34.49
2018-04-28T16:19:13.303Z,32.63
2018-04-28T16:21:43.041Z,29.74
2018-04-28T16:24:12.023Z,29.04
2018-04-28T16:29:17.889Z,28.24
2018-04-28T16:31:47.207Z,27.21
2018-04-28T16:34:16.241Z,26.50
2018-04-28T16:36:45.315Z,26.49
2018-04-28T16:39:14.359Z,26.08
2018-04-28T16:41:44.048Z,25.71
2018-04-28T16:44:13.210Z,25.43
2018-04-28T16:46:42.198Z,25.36
2018-04-28T16:49:11.669Z,25.08
2018-04-28T16:51:40.899Z,24.53
2018-04-28T16:54:10.609Z,24.62
2018-04-28T16:56:39.667Z,24.81
2018-04-28T16:59:08.768Z,24.29
2018-04-28T17:01:37.780Z,24.03
2018-04-28T17:06:43.658Z,23.63
2018-04-28T17:09:13.076Z,23.75
2018-04-28T17:11:42.106Z,23.48
2018-04-28T17:14:11.194Z,23.24
2018-04-28T17:16:40.435Z,22.90
2018-04-28T17:19:09.457Z,22.88
2018-04-28T17:24:14.354Z,22.86
2018-04-28T17:26:43.720Z,22.67
2018-04-28T17:29:12.784Z,22.46
2018-04-28T17:31:41.832Z,22.56
2018-04-28T17:34:10.899Z,22.24
2018-04-28T17:36:39.953Z,22.02
2018-04-28T17:39:09.086Z,21.79
2018-04-28T17:41:38.142Z,21.67
2018-04-28T17:44:08.001Z,21.58
2018-04-28T17:46:39.137Z,21.58
2018-04-28T17:49:08.212Z,21.37
2018-04-28T17:51:37.998Z,21.46
2018-04-28T17:54:07.074Z,21.10
2018-04-28T17:56:36.871Z,20.89
2018-04-28T17:59:06.184Z,20.82
2018-04-28T18:01:35.268Z,20.57
2018-04-28T18:04:04.321Z,20.45
2018-04-28T18:06:34.334Z,20.53
2018-04-28T18:09:03.374Z,20.26
2018-04-28T18:11:34.557Z,20.00
2018-04-28T18:19:15.314Z,19.90
2018-04-28T18:21:44.485Z,19.59
2018-04-28T18:24:13.546Z,19.32
2018-04-28T18:26:43.526Z,19.11
2018-04-28T18:29:12.583Z,18.94
2018-04-28T18:31:42.354Z,19.01
2018-04-28T18:34:11.441Z,18.73
2018-04-28T18:39:16.279Z,18.62
2018-04-28T18:41:46.300Z,18.71
2018-04-28T18:44:15.386Z,18.43
2018-04-28T18:46:45.388Z,18.22
2018-04-28T18:49:14.519Z,18.06
2018-04-28T18:51:44.278Z,17.93
2018-04-28T18:54:13.314Z,17.80
2018-04-28T18:56:42.380Z,17.68
2018-04-28T18:59:11.431Z,17.58
2018-04-28T19:01:42.519Z,17.71
2018-04-28T19:04:11.550Z,17.50
2018-04-28T19:09:16.327Z,17.45
2018-04-28T19:11:50.474Z,17.31
2018-04-28T19:14:19.558Z,17.20
2018-04-28T19:16:50.254Z,17.33
2018-04-28T19:19:19.310Z,17.14
2018-04-28T19:21:49.944Z,16.96
2018-04-28T19:24:18.977Z,16.82
2018-04-28T19:29:24.153Z,16.86
2018-04-28T19:31:53.242Z,16.94
2018-04-28T19:34:22.339Z,16.65
2018-04-28T19:39:27.586Z,16.53
2018-04-28T19:41:56.717Z,16.32
2018-04-28T19:44:26.276Z,16.17
2018-04-28T19:46:56.354Z,16.05
2018-04-28T19:49:25.813Z,15.94
2018-04-28T19:51:55.870Z,15.82
2018-04-28T19:54:25.582Z,15.71
2018-04-28T19:59:30.359Z,15.76
2018-04-28T20:02:00.994Z,15.82
2018-04-28T20:04:31.427Z,15.58
2018-04-28T20:07:00.556Z,15.45
2018-04-28T20:09:30.751Z,15.36
2018-04-28T20:14:36.292Z,15.56
2018-04-28T20:17:09.761Z,15.56
2018-04-28T20:19:42.795Z,15.25
2018-04-28T20:22:29.445Z,15.09
2018-04-28T20:30:19.337Z,15.16
2018-04-28T20:32:50.213Z,14.94
2018-04-28T20:35:19.272Z,15.00
2018-04-28T20:40:25.142Z,14.89
2018-04-28T20:45:32.719Z,14.83
2018-04-28T20:50:46.703Z,14.65
2018-04-28T20:53:15.751Z,14.51
2018-04-28T20:55:52.853Z,14.43
2018-04-28T20:58:22.634Z,14.31
2018-04-28T21:00:54.722Z,14.19
2018-04-28T21:03:24.714Z,14.07
2018-04-28T21:05:53.758Z,14.19
2018-04-28T21:08:23.668Z,14.01
2018-04-28T21:10:52.729Z,13.87
2018-04-28T21:13:22.958Z,13.86
2018-04-28T21:18:27.884Z,14.05
2018-04-28T21:20:57.240Z,14.30
2018-04-28T21:23:26.277Z,14.14
2018-04-28T21:25:56.435Z,14.21
2018-04-28T21:28:25.466Z,14.07
2018-04-28T21:30:54.609Z,13.93
2018-04-28T21:33:23.593Z,13.90
2018-04-28T21:35:54.667Z,13.85
2018-04-28T21:38:23.965Z,13.69
2018-04-28T21:40:56.981Z,13.54
2018-04-28T21:43:26.943Z,13.45
2018-04-28T21:48:35.018Z,13.43
2018-04-28T21:53:44.838Z,13.45
2018-04-28T21:56:13.923Z,13.19
2018-04-28T21:58:44.958Z,13.03
2018-04-28T22:01:14.018Z,12.93
2018-04-28T22:03:43.468Z,12.83
2018-04-28T22:06:12.530Z,12.77
2018-04-28T22:08:42.093Z,12.74
2018-04-28T22:11:11.175Z,12.68
2018-04-28T22:13:41.496Z,12.68
2018-04-28T22:16:10.635Z,12.60
2018-04-28T22:18:40.699Z,12.71
2018-04-28T22:21:12.981Z,12.50
2018-04-28T22:23:43.586Z,12.56
2018-04-28T22:26:14.142Z,12.45
2018-04-28T22:28:43.201Z,12.36
2018-04-28T22:31:12.998Z,12.54
2018-04-28T22:33:42.102Z,12.47
2018-04-28T22:36:11.769Z,12.42
2018-04-28T22:38:42.127Z,12.52
2018-04-28T22:41:11.206Z,12.63
2018-04-28T22:43:42.155Z,12.41
2018-04-28T22:46:12.208Z,12.32
2018-04-28T22:48:41.942Z,12.40
2018-04-28T22:51:11.008Z,12.24
2018-04-28T22:53:42.061Z,12.35
2018-04-28T22:56:11.117Z,12.41
2018-04-28T22:58:41.764Z,12.20
2018-04-28T23:01:11.796Z,12.24
2018-04-28T23:03:41.217Z,12.00
2018-04-28T23:06:10.291Z,11.87
2018-04-28T23:08:41.859Z,11.82
2018-04-28T23:11:10.905Z,11.74
2018-04-28T23:13:40.626Z,11.92
2018-04-28T23:18:45.446Z,11.96
2018-04-28T23:21:15.003Z,11.75
2018-04-28T23:26:21.768Z,11.61
2018-04-28T23:28:52.605Z,11.39
2018-04-28T23:31:21.656Z,11.18
2018-04-28T23:33:54.582Z,11.13
2018-04-28T23:36:23.664Z,11.02
2018-04-28T23:38:54.246Z,11.00
2018-04-28T23:41:23.332Z,10.96
2018-04-28T23:43:52.850Z,11.04
2018-04-28T23:46:21.891Z,11.04
2018-04-28T23:48:52.951Z,11.20
2018-04-28T23:51:21.999Z,11.10
2018-04-28T23:53:54.109Z,11.24
2018-04-28T23:56:23.803Z,11.08
2018-04-28T23:58:52.863Z,10.95
